createdAt,value
2022-12-25T00:00:42.633Z,99267.00
2022-12-25T00:02:15.936Z,99261.00
2022-12-25T00:03:49.999Z,99267.00
2022-12-25T00:05:23.411Z,99265.00
2022-12-25T00:06:59.708Z,99267.00
2022-12-25T00:08:36.599Z,99266.00
2022-12-25T00:10:14.138Z,99268.00
2022-12-25T00:11:47.400Z,99288.00
2022-12-25T00:13:20.960Z,99283.00
2022-12-25T00:14:54.506Z,99271.00
2022-12-25T00:16:28.583Z,99289.00
2022-12-25T00:18:01.119Z,99281.00
2022-12-25T00:19:34.678Z,99284.00
2022-12-25T00:21:08.693Z,99289.00
2022-12-25T00:22:41.915Z,99284.00
2022-12-25T00:24:16.634Z,99283.00
2022-12-25T00:25:48.944Z,99283.00
2022-12-25T00:27:22.355Z,99267.00
2022-12-25T00:28:56.421Z,99269.00
2022-12-25T00:30:29.761Z,99277.00
2022-12-25T00:32:08.788Z,99281.00
2022-12-25T00:33:47.986Z,99280.00
2022-12-25T00:35:20.307Z,99262.00
2022-12-25T00:36:59.610Z,99279.00
2022-12-25T00:38:40.933Z,99273.00
2022-12-25T00:40:21.151Z,99275.00
2022-12-25T00:42:12.119Z,99274.00
2022-12-25T00:43:47.924Z,99283.00
2022-12-25T00:45:21.303Z,99282.00
2022-12-25T00:46:53.867Z,99273.00
2022-12-25T00:48:35.107Z,99277.00
2022-12-25T00:50:09.199Z,99279.00
2022-12-25T00:51:42.771Z,99277.00
2022-12-25T00:53:15.049Z,99277.00
2022-12-25T00:54:48.258Z,99288.00
2022-12-25T00:56:22.892Z,99281.00
2022-12-25T00:57:56.042Z,99289.00
2022-12-25T00:59:40.546Z,99289.00
2022-12-25T01:01:15.439Z,99279.00
2022-12-25T01:02:48.950Z,99281.00
2022-12-25T01:04:21.725Z,99289.00
2022-12-25T01:06:00.723Z,99277.00
2022-12-25T01:07:34.879Z,99289.00
2022-12-25T01:09:26.252Z,99278.00
2022-12-25T01:11:05.141Z,99280.00
2022-12-25T01:12:42.371Z,99282.00
2022-12-25T01:14:18.458Z,99282.00
2022-12-25T01:15:52.894Z,99291.00
2022-12-25T01:17:25.815Z,99281.00
2022-12-25T01:19:01.885Z,99281.00
2022-12-25T01:20:38.720Z,99275.00
2022-12-25T01:22:11.722Z,99276.00
2022-12-25T01:23:46.628Z,99275.00
2022-12-25T01:25:20.215Z,99278.00
2022-12-25T01:26:55.246Z,99285.00
2022-12-25T01:28:32.139Z,99284.00
2022-12-25T01:30:07.913Z,99286.00
2022-12-25T01:31:41.380Z,99282.00
2022-12-25T01:33:15.148Z,99277.00
2022-12-25T01:34:53.741Z,99281.00
2022-12-25T01:36:29.354Z,99283.00
2022-12-25T01:38:02.723Z,99287.00
2022-12-25T01:39:35.313Z,99289.00
2022-12-25T01:41:08.870Z,99286.00
2022-12-25T01:42:44.163Z,99287.00
2022-12-25T01:45:09.835Z,99289.00
2022-12-25T01:46:45.411Z,99282.00
2022-12-25T01:48:24.850Z,99287.00
2022-12-25T01:49:58.518Z,99277.00
2022-12-25T01:51:38.242Z,99282.00
2022-12-25T01:53:11.318Z,99283.00
2022-12-25T01:54:52.879Z,99280.00
2022-12-25T01:56:28.173Z,99277.00
2022-12-25T01:58:02.354Z,99273.00
2022-12-25T01:59:35.684Z,99255.00
2022-12-25T02:01:10.217Z,99264.00
2022-12-25T02:02:45.632Z,99270.00
2022-12-25T02:04:38.502Z,99268.00
2022-12-25T02:06:12.152Z,99267.00
2022-12-25T02:07:47.972Z,99261.00
2022-12-25T02:09:20.451Z,99268.00
2022-12-25T02:10:53.651Z,99270.00
2022-12-25T02:12:29.065Z,99266.00
2022-12-25T02:14:02.910Z,99266.00
2022-12-25T02:15:49.826Z,99266.00
2022-12-25T02:17:32.390Z,99271.00
2022-12-25T02:19:26.682Z,99272.00
2022-12-25T02:21:38.510Z,99273.00
2022-12-25T02:23:48.347Z,99262.00
2022-12-25T02:25:43.308Z,99268.00
2022-12-25T02:27:32.792Z,99270.00
2022-12-25T02:29:17.416Z,99277.00
2022-12-25T02:30:57.514Z,99281.00
2022-12-25T02:32:37.401Z,99284.00
2022-12-25T02:34:17.370Z,99299.00
2022-12-25T02:35:56.562Z,99297.00
2022-12-25T02:37:41.509Z,99289.00
2022-12-25T02:39:41.797Z,99283.00
2022-12-25T02:41:17.945Z,99289.00
2022-12-25T02:43:16.386Z,99281.00
2022-12-25T02:45:10.377Z,99281.00
2022-12-25T02:47:02.739Z,99283.00
2022-12-25T02:49:02.201Z,99276.00
2022-12-25T02:50:53.119Z,99278.00
2022-12-25T02:52:46.998Z,99274.00
2022-12-25T02:54:45.706Z,99276.00
2022-12-25T02:56:39.745Z,99271.00
2022-12-25T02:58:41.091Z,99270.00
2022-12-25T03:00:35.250Z,99274.00
2022-12-25T03:02:27.495Z,99272.00
2022-12-25T03:04:20.913Z,99274.00
2022-12-25T03:06:18.423Z,99274.00
2022-12-25T03:07:52.853Z,99280.00
2022-12-25T03:09:49.608Z,99285.00
2022-12-25T03:11:33.593Z,99273.00
2022-12-25T03:13:14.655Z,99278.00
2022-12-25T03:15:08.350Z,99265.00
2022-12-25T03:16:51.238Z,99265.00
2022-12-25T03:18:28.554Z,99263.00
2022-12-25T03:20:19.889Z,99267.00
2022-12-25T03:22:12.477Z,99273.00
2022-12-25T03:24:16.378Z,99270.00
2022-12-25T03:26:07.482Z,99263.00
2022-12-25T03:27:44.968Z,99269.00
2022-12-25T03:29:32.132Z,99262.00
2022-12-25T03:31:17.025Z,99268.00
2022-12-25T03:33:18.044Z,99261.00
2022-12-25T03:35:25.343Z,99259.00
2022-12-25T03:37:43.905Z,99254.00
2022-12-25T03:39:45.395Z,99254.00
2022-12-25T03:41:47.483Z,99268.00
2022-12-25T03:44:03.348Z,99254.00
2022-12-25T03:46:03.721Z,99253.00
2022-12-25T03:48:01.620Z,99247.00
2022-12-25T03:50:04.440Z,99251.00
2022-12-25T03:51:58.786Z,99238.00
2022-12-25T03:53:57.015Z,99238.00
2022-12-25T03:55:48.040Z,99229.00
2022-12-25T03:57:38.810Z,99245.00
2022-12-25T03:59:32.089Z,99231.00
2022-12-25T04:01:22.802Z,99228.00
2022-12-25T04:03:13.690Z,99229.00
2022-12-25T04:05:06.207Z,99234.00
2022-12-25T04:06:57.643Z,99224.00
2022-12-25T04:08:48.608Z,99226.00
2022-12-25T04:10:40.012Z,99220.00
2022-12-25T04:12:30.961Z,99211.00
2022-12-25T04:14:21.621Z,99190.00
2022-12-25T04:16:12.702Z,99202.00
2022-12-25T04:18:03.727Z,99201.00
2022-12-25T04:19:54.603Z,99202.00
2022-12-25T04:21:45.842Z,99214.00
2022-12-25T04:23:36.644Z,99211.00
2022-12-25T04:25:28.014Z,99205.00
2022-12-25T04:27:19.097Z,99219.00
2022-12-25T04:29:10.101Z,99225.00
2022-12-25T04:31:01.223Z,99227.00
2022-12-25T04:32:52.124Z,99233.00
2022-12-25T04:34:50.979Z,99236.00
2022-12-25T04:36:24.165Z,99235.00
2022-12-25T04:37:58.040Z,99246.00
2022-12-25T04:39:31.161Z,99238.00
2022-12-25T04:41:05.517Z,99238.00
2022-12-25T04:42:37.879Z,99234.00
2022-12-25T04:44:11.165Z,99244.00
2022-12-25T04:45:43.282Z,99242.00
2022-12-25T04:47:16.477Z,99234.00
2022-12-25T04:48:49.635Z,99238.00
2022-12-25T04:50:22.780Z,99234.00
2022-12-25T04:51:55.888Z,99235.00
2022-12-25T04:53:29.535Z,99234.00
2022-12-25T04:55:03.216Z,99242.00
2022-12-25T04:56:43.478Z,99244.00
2022-12-25T04:58:19.070Z,99234.00
2022-12-25T04:59:51.562Z,99232.00
2022-12-25T05:01:24.822Z,99233.00
2022-12-25T05:02:59.536Z,99238.00
2022-12-25T05:04:33.137Z,99221.00
2022-12-25T05:06:07.620Z,99217.00
2022-12-25T05:07:40.886Z,99220.00
2022-12-25T05:09:15.609Z,99213.00
2022-12-25T05:10:48.600Z,99220.00
2022-12-25T05:12:21.830Z,99218.00
2022-12-25T05:13:53.995Z,99218.00
2022-12-25T05:15:27.336Z,99214.00
2022-12-25T05:17:00.507Z,99209.00
2022-12-25T05:18:32.799Z,99204.00
2022-12-25T05:20:07.786Z,99201.00
2022-12-25T05:21:41.026Z,99203.00
2022-12-25T05:23:13.343Z,99209.00
2022-12-25T05:24:48.044Z,99208.00
2022-12-25T05:26:24.197Z,99208.00
2022-12-25T05:27:56.453Z,99202.00
2022-12-25T05:29:29.790Z,99208.00
2022-12-25T05:31:02.169Z,99210.00
2022-12-25T05:32:35.572Z,99209.00
2022-12-25T05:34:08.817Z,99210.00
2022-12-25T05:35:41.387Z,99217.00
2022-12-25T05:37:14.959Z,99213.00
2022-12-25T05:38:47.475Z,99216.00
2022-12-25T05:40:22.074Z,99208.00
2022-12-25T05:41:56.757Z,99188.00
2022-12-25T05:43:31.281Z,99190.00
2022-12-25T05:45:04.891Z,99193.00
2022-12-25T05:46:38.222Z,99180.00
2022-12-25T05:48:10.758Z,99179.00
2022-12-25T05:49:44.266Z,99180.00
2022-12-25T05:51:17.416Z,99176.00
2022-12-25T05:52:50.552Z,99162.00
2022-12-25T05:54:25.305Z,99155.00
2022-12-25T05:56:02.158Z,99161.00
2022-12-25T05:57:35.432Z,99150.00
2022-12-25T05:59:07.738Z,99145.00
2022-12-25T06:00:44.308Z,99156.00
2022-12-25T06:02:16.691Z,99161.00
2022-12-25T06:03:50.024Z,99169.00
2022-12-25T06:05:22.808Z,99166.00
2022-12-25T06:06:55.983Z,99165.00
2022-12-25T06:08:29.189Z,99173.00
2022-12-25T06:10:02.267Z,99174.00
2022-12-25T06:11:37.412Z,99182.00
2022-12-25T06:13:10.710Z,99178.00
2022-12-25T06:14:44.259Z,99179.00
2022-12-25T06:16:16.558Z,99174.00
2022-12-25T06:17:50.001Z,99167.00
2022-12-25T06:19:23.847Z,99187.00
2022-12-25T06:20:56.016Z,99190.00
2022-12-25T06:22:32.364Z,99181.00
2022-12-25T06:24:06.445Z,99176.00
2022-12-25T06:25:40.773Z,99174.00
2022-12-25T06:27:15.098Z,99164.00
2022-12-25T06:28:51.008Z,99159.00
2022-12-25T06:30:24.336Z,99156.00
2022-12-25T06:31:57.400Z,99156.00
2022-12-25T06:33:31.670Z,99167.00
2022-12-25T06:35:05.471Z,99148.00
2022-12-25T06:36:39.280Z,99144.00
2022-12-25T06:38:14.229Z,99146.00
2022-12-25T06:39:48.445Z,99137.00
2022-12-25T06:41:24.981Z,99136.00
2022-12-25T06:42:59.805Z,99132.00
2022-12-25T06:44:33.615Z,99130.00
2022-12-25T06:46:10.529Z,99132.00
2022-12-25T06:47:44.160Z,99134.00
2022-12-25T06:49:17.447Z,99132.00
2022-12-25T06:50:49.666Z,99124.00
2022-12-25T06:52:22.838Z,99119.00
2022-12-25T06:53:57.022Z,99119.00
2022-12-25T06:55:30.533Z,99124.00
2022-12-25T06:57:03.895Z,99127.00
2022-12-25T06:58:38.394Z,99122.00
2022-12-25T07:00:12.980Z,99122.00
2022-12-25T07:01:50.224Z,99113.00
2022-12-25T07:03:24.983Z,99114.00
2022-12-25T07:04:58.932Z,99109.00
2022-12-25T07:06:31.388Z,99106.00
2022-12-25T07:08:05.607Z,99107.00
2022-12-25T07:09:39.790Z,99107.00
2022-12-25T07:11:12.254Z,99111.00
2022-12-25T07:12:45.510Z,99110.00
2022-12-25T07:14:24.381Z,99103.00
2022-12-25T07:15:57.351Z,99096.00
2022-12-25T07:17:30.526Z,99100.00
2022-12-25T07:19:03.709Z,99099.00
2022-12-25T07:20:37.070Z,99105.00
2022-12-25T07:22:10.433Z,99095.00
2022-12-25T07:23:45.274Z,99086.00
2022-12-25T07:25:18.535Z,99084.00
2022-12-25T07:26:53.486Z,99078.00
2022-12-25T07:28:26.639Z,99080.00
2022-12-25T07:30:01.466Z,99078.00
2022-12-25T07:31:33.781Z,99079.00
2022-12-25T07:33:07.102Z,99081.00
2022-12-25T07:34:40.499Z,99077.00
2022-12-25T07:36:14.365Z,99087.00
2022-12-25T07:37:47.903Z,99090.00
2022-12-25T07:39:20.123Z,99081.00
2022-12-25T07:40:54.177Z,99073.00
2022-12-25T07:42:27.402Z,99075.00
2022-12-25T07:44:00.951Z,99071.00
2022-12-25T07:45:34.577Z,99061.00
2022-12-25T07:47:07.791Z,99060.00
2022-12-25T07:48:41.138Z,99059.00
2022-12-25T07:50:14.410Z,99048.00
2022-12-25T07:51:47.545Z,99057.00
2022-12-25T07:53:20.333Z,99050.00
2022-12-25T07:54:53.492Z,99047.00
2022-12-25T07:56:26.799Z,99050.00
2022-12-25T07:57:59.927Z,99049.00
2022-12-25T07:59:33.184Z,99043.00
2022-12-25T08:01:12.086Z,99048.00
2022-12-25T08:02:45.503Z,99044.00
2022-12-25T08:04:19.242Z,99043.00
2022-12-25T08:05:51.711Z,99044.00
2022-12-25T08:07:25.242Z,99031.00
2022-12-25T08:09:02.965Z,99031.00
2022-12-25T08:10:36.197Z,99033.00
2022-12-25T08:12:09.313Z,99056.00
2022-12-25T08:13:42.911Z,99050.00
2022-12-25T08:15:15.339Z,99041.00
2022-12-25T08:16:50.117Z,99039.00
2022-12-25T08:18:29.446Z,99047.00
2022-12-25T08:20:03.173Z,99030.00
2022-12-25T08:21:36.424Z,99042.00
2022-12-25T08:23:09.875Z,99044.00
2022-12-25T08:24:43.471Z,99053.00
2022-12-25T08:26:20.322Z,99059.00
2022-12-25T08:27:52.813Z,99053.00
2022-12-25T08:29:28.867Z,99061.00
2022-12-25T08:31:09.075Z,99035.00
2022-12-25T08:32:43.770Z,99023.00
2022-12-25T08:34:18.836Z,99018.00
2022-12-25T08:35:52.304Z,99015.00
2022-12-25T08:37:26.558Z,99035.00
2022-12-25T08:39:02.934Z,99034.00
2022-12-25T08:40:35.470Z,99037.00
2022-12-25T08:42:08.783Z,99026.00
2022-12-25T08:43:43.586Z,99015.00
2022-12-25T08:45:16.873Z,99003.00
2022-12-25T08:46:49.263Z,98999.00
2022-12-25T08:48:24.074Z,98999.00
2022-12-25T08:49:57.382Z,99001.00
2022-12-25T08:51:30.736Z,98991.00
2022-12-25T08:53:04.023Z,98993.00
2022-12-25T08:54:37.183Z,98993.00
2022-12-25T08:56:11.136Z,98988.00
2022-12-25T08:57:44.669Z,98981.00
2022-12-25T08:59:17.803Z,98988.00
2022-12-25T09:00:50.932Z,98990.00
2022-12-25T09:02:24.318Z,99015.00
2022-12-25T09:04:02.172Z,99026.00
2022-12-25T09:05:36.535Z,99027.00
2022-12-25T09:07:09.994Z,99042.00
2022-12-25T09:08:48.992Z,99033.00
2022-12-25T09:10:23.783Z,99050.00
2022-12-25T09:11:57.177Z,99057.00
2022-12-25T09:13:30.432Z,99065.00
2022-12-25T09:15:04.570Z,99062.00
2022-12-25T09:16:37.994Z,99060.00
2022-12-25T09:18:11.530Z,99058.00
2022-12-25T09:19:46.019Z,99057.00
2022-12-25T09:21:20.481Z,99042.00
2022-12-25T09:22:52.618Z,99040.00
2022-12-25T09:24:25.862Z,99023.00
2022-12-25T09:26:00.780Z,99023.00
2022-12-25T09:27:34.064Z,99006.00
2022-12-25T09:29:07.185Z,99011.00
2022-12-25T09:30:40.454Z,99020.00
2022-12-25T09:32:13.766Z,99007.00
2022-12-25T09:33:47.074Z,99017.00
2022-12-25T09:35:21.597Z,99010.00
2022-12-25T09:36:54.719Z,99005.00
2022-12-25T09:38:27.853Z,99007.00
2022-12-25T09:40:01.240Z,99013.00
2022-12-25T09:41:41.156Z,99007.00
2022-12-25T09:43:27.983Z,99003.00
2022-12-25T09:45:06.443Z,99026.00
2022-12-25T09:46:46.216Z,99023.00
2022-12-25T09:48:20.091Z,99036.00
2022-12-25T09:49:59.119Z,99023.00
2022-12-25T09:51:37.989Z,99018.00
2022-12-25T09:53:20.161Z,99016.00
2022-12-25T09:55:00.783Z,99019.00
2022-12-25T09:56:33.520Z,99024.00
2022-12-25T09:58:13.319Z,99032.00
2022-12-25T09:59:47.602Z,99054.00
2022-12-25T10:01:34.991Z,99054.00
2022-12-25T10:03:29.539Z,99052.00
2022-12-25T10:05:22.122Z,99061.00
2022-12-25T10:07:11.951Z,99064.00
2022-12-25T10:09:08.111Z,99075.00
2022-12-25T10:10:52.845Z,99064.00
2022-12-25T10:12:46.216Z,99083.00
2022-12-25T10:14:35.918Z,99076.00
2022-12-25T10:16:28.352Z,99078.00
2022-12-25T10:18:38.646Z,99057.00
2022-12-25T10:20:28.599Z,99063.00
2022-12-25T10:22:11.319Z,99055.00
2022-12-25T10:23:51.014Z,99052.00
2022-12-25T10:25:26.214Z,99055.00
2022-12-25T10:27:02.137Z,99049.00
2022-12-25T10:28:42.606Z,99048.00
2022-12-25T10:30:21.299Z,99051.00
2022-12-25T10:31:56.687Z,99043.00
2022-12-25T10:33:28.966Z,99035.00
2022-12-25T10:35:14.064Z,99033.00
2022-12-25T10:36:49.930Z,99021.00
2022-12-25T10:38:24.581Z,99011.00
2022-12-25T10:39:58.158Z,99021.00
2022-12-25T10:41:55.692Z,99004.00
2022-12-25T10:43:39.625Z,99000.00
2022-12-25T10:45:13.422Z,98995.00
2022-12-25T10:46:50.983Z,98979.00
2022-12-25T10:48:29.689Z,98974.00
2022-12-25T10:50:12.900Z,98973.00
2022-12-25T10:51:46.157Z,98975.00
2022-12-25T10:53:24.405Z,98986.00
2022-12-25T10:54:57.893Z,98981.00
2022-12-25T10:56:31.464Z,98968.00
2022-12-25T10:58:06.759Z,98972.00
2022-12-25T10:59:47.195Z,98976.00
2022-12-25T11:01:20.804Z,98977.00
2022-12-25T11:02:56.179Z,98977.00
2022-12-25T11:04:29.960Z,98962.00
2022-12-25T11:06:03.779Z,98964.00
2022-12-25T11:07:53.780Z,98959.00
2022-12-25T11:09:29.057Z,98964.00
2022-12-25T11:11:06.941Z,98967.00
2022-12-25T11:12:46.799Z,98961.00
2022-12-25T11:14:23.650Z,98960.00
2022-12-25T11:16:09.200Z,98965.00
2022-12-25T11:17:50.406Z,98960.00
2022-12-25T11:19:31.021Z,98962.00
2022-12-25T11:21:18.771Z,98956.00
2022-12-25T11:22:52.606Z,98961.00
2022-12-25T11:24:30.639Z,98961.00
2022-12-25T11:26:07.293Z,98947.00
2022-12-25T11:27:40.446Z,98943.00
2022-12-25T11:29:30.068Z,98937.00
2022-12-25T11:31:08.528Z,98936.00
2022-12-25T11:32:55.288Z,98925.00
2022-12-25T11:34:35.407Z,98930.00
2022-12-25T11:36:21.692Z,98929.00
2022-12-25T11:37:55.285Z,98933.00
2022-12-25T11:39:33.542Z,98927.00
2022-12-25T11:41:10.411Z,98912.00
2022-12-25T11:42:51.024Z,98912.00
2022-12-25T11:44:37.070Z,98905.00
2022-12-25T11:46:21.685Z,98890.00
2022-12-25T11:47:59.811Z,98884.00
2022-12-25T11:49:48.673Z,98879.00
2022-12-25T11:51:27.090Z,98879.00
2022-12-25T11:53:05.891Z,98864.00
2022-12-25T11:54:53.504Z,98851.00
2022-12-25T11:56:29.610Z,98853.00
2022-12-25T11:58:13.796Z,98833.00
2022-12-25T11:59:57.304Z,98840.00
2022-12-25T12:01:38.233Z,98841.00
2022-12-25T12:03:24.067Z,98827.00
2022-12-25T12:05:13.003Z,98835.00
2022-12-25T12:06:55.370Z,98830.00
2022-12-25T12:08:28.878Z,98823.00
2022-12-25T12:10:17.139Z,98827.00
2022-12-25T12:12:02.212Z,98824.00
2022-12-25T12:13:46.392Z,98820.00
2022-12-25T12:15:31.034Z,98817.00
2022-12-25T12:17:03.599Z,98808.00
2022-12-25T12:18:38.300Z,98808.00
2022-12-25T12:20:14.724Z,98797.00
2022-12-25T12:21:50.698Z,98800.00
2022-12-25T12:23:24.532Z,98792.00
2022-12-25T12:25:05.623Z,98797.00
2022-12-25T12:26:45.194Z,98795.00
2022-12-25T12:28:25.607Z,98778.00
2022-12-25T12:30:01.781Z,98793.00
2022-12-25T12:31:43.763Z,98788.00
2022-12-25T12:33:21.941Z,98792.00
2022-12-25T12:34:56.303Z,98798.00
2022-12-25T12:36:36.272Z,98792.00
2022-12-25T12:38:16.565Z,98781.00
2022-12-25T12:39:55.324Z,98791.00
2022-12-25T12:41:48.138Z,98778.00
2022-12-25T12:43:37.206Z,98779.00
2022-12-25T12:45:16.951Z,98770.00
2022-12-25T12:46:57.272Z,98778.00
2022-12-25T12:48:36.892Z,98766.00
2022-12-25T12:50:31.423Z,98774.00
2022-12-25T12:52:08.151Z,98775.00
2022-12-25T12:53:43.390Z,98772.00
2022-12-25T12:55:31.525Z,98764.00
2022-12-25T12:57:23.330Z,98764.00
2022-12-25T12:58:56.658Z,98761.00
2022-12-25T13:00:45.480Z,98757.00
2022-12-25T13:03:02.009Z,98757.00
2022-12-25T13:05:01.913Z,98746.00
2022-12-25T13:06:44.436Z,98766.00
2022-12-25T13:08:35.813Z,98758.00
2022-12-25T13:10:24.567Z,98759.00
2022-12-25T13:11:58.312Z,98748.00
2022-12-25T13:13:40.292Z,98744.00
2022-12-25T13:15:15.283Z,98741.00
2022-12-25T13:16:53.428Z,98745.00
2022-12-25T13:18:26.047Z,98733.00
2022-12-25T13:20:02.265Z,98726.00
2022-12-25T13:21:36.987Z,98725.00
2022-12-25T13:23:26.288Z,98723.00
2022-12-25T13:25:01.356Z,98726.00
2022-12-25T13:26:34.512Z,98731.00
2022-12-25T13:28:12.963Z,98721.00
2022-12-25T13:29:47.584Z,98712.00
2022-12-25T13:31:24.211Z,98725.00
2022-12-25T13:32:59.961Z,98720.00
2022-12-25T13:34:37.749Z,98699.00
2022-12-25T13:36:14.213Z,98711.00
2022-12-25T13:37:49.096Z,98713.00
2022-12-25T13:39:24.963Z,98719.00
2022-12-25T13:41:18.988Z,98723.00
2022-12-25T13:43:00.235Z,98710.00
2022-12-25T13:44:45.215Z,98697.00
2022-12-25T13:46:28.137Z,98693.00
2022-12-25T13:48:16.050Z,98700.00
2022-12-25T13:50:00.816Z,98704.00
2022-12-25T13:51:33.987Z,98702.00
2022-12-25T13:53:14.963Z,98716.00
2022-12-25T13:54:57.277Z,98704.00
2022-12-25T13:56:30.541Z,98702.00
2022-12-25T13:58:06.353Z,98696.00
2022-12-25T13:59:40.590Z,98707.00
2022-12-25T14:01:19.500Z,98718.00
2022-12-25T14:02:55.723Z,98717.00
2022-12-25T14:04:30.052Z,98714.00
2022-12-25T14:06:06.868Z,98721.00
2022-12-25T14:07:41.324Z,98717.00
2022-12-25T14:09:15.412Z,98719.00
2022-12-25T14:10:52.878Z,98719.00
2022-12-25T14:12:30.168Z,98696.00
2022-12-25T14:14:16.422Z,98699.00
2022-12-25T14:15:53.248Z,98709.00
2022-12-25T14:17:28.319Z,98713.00
2022-12-25T14:19:04.443Z,98702.00
2022-12-25T14:20:42.570Z,98688.00
2022-12-25T14:22:24.520Z,98692.00
2022-12-25T14:23:58.222Z,98697.00
2022-12-25T14:25:38.294Z,98691.00
2022-12-25T14:27:21.065Z,98693.00
2022-12-25T14:29:11.158Z,98696.00
2022-12-25T14:30:51.164Z,98697.00
2022-12-25T14:32:31.129Z,98704.00
2022-12-25T14:34:08.344Z,98710.00
2022-12-25T14:35:42.076Z,98704.00
2022-12-25T14:37:20.134Z,98707.00
2022-12-25T14:39:01.306Z,98700.00
2022-12-25T14:40:35.917Z,98698.00
2022-12-25T14:42:21.841Z,98706.00
2022-12-25T14:43:56.594Z,98707.00
2022-12-25T14:45:33.960Z,98710.00
2022-12-25T14:47:17.896Z,98714.00
2022-12-25T14:49:02.258Z,98708.00
2022-12-25T14:50:43.798Z,98705.00
2022-12-25T14:52:21.853Z,98702.00
2022-12-25T14:53:58.836Z,98696.00
2022-12-25T14:55:32.727Z,98707.00
2022-12-25T14:57:06.104Z,98699.00
2022-12-25T14:58:47.894Z,98700.00
2022-12-25T15:00:26.141Z,98704.00
2022-12-25T15:02:01.985Z,98702.00
2022-12-25T15:03:38.258Z,98706.00
2022-12-25T15:05:40.798Z,98715.00
2022-12-25T15:07:32.756Z,98707.00
2022-12-25T15:09:15.805Z,98713.00
2022-12-25T15:11:00.301Z,98709.00
2022-12-25T15:12:34.794Z,98722.00
2022-12-25T15:14:08.099Z,98721.00
2022-12-25T15:15:49.439Z,98716.00
2022-12-25T15:17:28.272Z,98708.00
2022-12-25T15:19:02.464Z,98709.00
2022-12-25T15:20:36.649Z,98708.00
2022-12-25T15:22:14.302Z,98703.00
2022-12-25T15:23:48.165Z,98698.00
2022-12-25T15:25:21.798Z,98699.00
2022-12-25T15:26:55.314Z,98698.00
2022-12-25T15:28:28.805Z,98693.00
2022-12-25T15:30:10.759Z,98692.00
2022-12-25T15:31:44.545Z,98693.00
2022-12-25T15:33:19.947Z,98700.00
2022-12-25T15:34:53.792Z,98704.00
2022-12-25T15:36:28.959Z,98705.00
2022-12-25T15:38:03.571Z,98686.00
2022-12-25T15:39:36.694Z,98690.00
2022-12-25T15:41:36.535Z,98689.00
2022-12-25T15:43:39.472Z,98685.00
2022-12-25T15:45:20.088Z,98682.00
2022-12-25T15:46:53.518Z,98685.00
2022-12-25T15:48:26.706Z,98682.00
2022-12-25T15:49:59.934Z,98677.00
2022-12-25T15:51:32.532Z,98688.00
2022-12-25T15:53:07.057Z,98685.00
2022-12-25T15:54:40.427Z,98687.00
2022-12-25T15:56:14.812Z,98691.00
2022-12-25T15:57:52.214Z,98686.00
2022-12-25T15:59:25.738Z,98686.00
2022-12-25T16:00:59.732Z,98684.00
2022-12-25T16:02:33.349Z,98697.00
2022-12-25T16:04:06.658Z,98685.00
2022-12-25T16:05:40.251Z,98682.00
2022-12-25T16:07:16.134Z,98680.00
2022-12-25T16:08:50.681Z,98678.00
2022-12-25T16:10:23.962Z,98681.00
2022-12-25T16:11:57.283Z,98683.00
2022-12-25T16:13:30.986Z,98680.00
2022-12-25T16:15:04.684Z,98683.00
2022-12-25T16:16:37.990Z,98685.00
2022-12-25T16:18:11.881Z,98667.00
2022-12-25T16:19:45.322Z,98673.00
2022-12-25T16:21:22.004Z,98673.00
2022-12-25T16:22:55.367Z,98673.00
2022-12-25T16:24:29.966Z,98664.00
2022-12-25T16:26:03.469Z,98662.00
2022-12-25T16:27:36.872Z,98660.00
2022-12-25T16:29:10.230Z,98661.00
2022-12-25T16:30:44.333Z,98655.00
2022-12-25T16:32:17.765Z,98667.00
2022-12-25T16:33:50.942Z,98663.00
2022-12-25T16:35:24.460Z,98655.00
2022-12-25T16:36:57.705Z,98669.00
2022-12-25T16:38:31.613Z,98667.00
2022-12-25T16:40:09.448Z,98668.00
2022-12-25T16:41:43.740Z,98664.00
2022-12-25T16:43:23.622Z,98659.00
2022-12-25T16:45:02.964Z,98664.00
2022-12-25T16:46:37.741Z,98652.00
2022-12-25T16:48:13.159Z,98657.00
2022-12-25T16:49:46.673Z,98656.00
2022-12-25T16:51:22.004Z,98658.00
2022-12-25T16:52:55.327Z,98662.00
2022-12-25T16:54:28.693Z,98661.00
2022-12-25T16:56:09.449Z,98657.00
2022-12-25T16:57:43.688Z,98656.00
2022-12-25T16:59:17.517Z,98651.00
2022-12-25T17:00:50.655Z,98652.00
2022-12-25T17:02:23.995Z,98666.00
2022-12-25T17:04:02.187Z,98665.00
2022-12-25T17:05:34.710Z,98670.00
2022-12-25T17:07:07.951Z,98665.00
2022-12-25T17:08:41.211Z,98662.00
2022-12-25T17:10:15.302Z,98646.00
2022-12-25T17:11:50.139Z,98651.00
2022-12-25T17:13:23.320Z,98650.00
2022-12-25T17:14:56.775Z,98652.00
2022-12-25T17:16:33.205Z,98648.00
2022-12-25T17:18:06.799Z,98650.00
2022-12-25T17:19:40.424Z,98656.00
2022-12-25T17:21:14.599Z,98656.00
2022-12-25T17:22:50.068Z,98645.00
2022-12-25T17:24:23.853Z,98641.00
2022-12-25T17:26:01.108Z,98652.00
2022-12-25T17:27:35.724Z,98653.00
2022-12-25T17:29:09.366Z,98658.00
2022-12-25T17:30:42.626Z,98667.00
2022-12-25T17:32:16.578Z,98667.00
2022-12-25T17:33:50.147Z,98657.00
2022-12-25T17:35:31.074Z,98656.00
2022-12-25T17:37:05.015Z,98657.00
2022-12-25T17:38:38.709Z,98657.00
2022-12-25T17:40:13.141Z,98662.00
2022-12-25T17:41:46.831Z,98659.00
2022-12-25T17:43:21.414Z,98655.00
2022-12-25T17:44:54.775Z,98654.00
2022-12-25T17:46:30.700Z,98656.00
2022-12-25T17:48:04.062Z,98658.00
2022-12-25T17:49:37.619Z,98656.00
2022-12-25T17:51:15.952Z,98667.00
2022-12-25T17:52:49.218Z,98656.00
2022-12-25T17:54:22.496Z,98644.00
2022-12-25T17:55:59.353Z,98655.00
2022-12-25T17:57:32.521Z,98655.00
2022-12-25T17:59:10.415Z,98648.00
2022-12-25T18:00:43.722Z,98649.00
2022-12-25T18:02:17.437Z,98645.00
2022-12-25T18:03:51.781Z,98648.00
2022-12-25T18:05:25.287Z,98659.00
2022-12-25T18:06:58.602Z,98656.00
2022-12-25T18:08:38.697Z,98657.00
2022-12-25T18:10:14.715Z,98665.00
2022-12-25T18:11:48.043Z,98655.00
2022-12-25T18:13:21.353Z,98656.00
2022-12-25T18:14:56.159Z,98652.00
2022-12-25T18:16:34.088Z,98651.00
2022-12-25T18:18:08.478Z,98656.00
2022-12-25T18:19:42.254Z,98643.00
2022-12-25T18:21:14.544Z,98658.00
2022-12-25T18:22:47.736Z,98667.00
2022-12-25T18:24:20.944Z,98663.00
2022-12-25T18:25:54.215Z,98665.00
2022-12-25T18:27:27.446Z,98658.00
2022-12-25T18:29:00.651Z,98644.00
2022-12-25T18:30:34.338Z,98644.00
2022-12-25T18:32:07.727Z,98655.00
2022-12-25T18:33:41.129Z,98658.00
2022-12-25T18:35:15.734Z,98659.00
2022-12-25T18:36:49.132Z,98641.00
2022-12-25T18:38:22.435Z,98642.00
2022-12-25T18:39:55.601Z,98649.00
2022-12-25T18:41:30.232Z,98641.00
2022-12-25T18:43:07.753Z,98648.00
2022-12-25T18:44:41.922Z,98640.00
2022-12-25T18:46:17.932Z,98636.00
2022-12-25T18:47:51.125Z,98637.00
2022-12-25T18:49:24.432Z,98633.00
2022-12-25T18:51:00.845Z,98631.00
2022-12-25T18:52:48.782Z,98635.00
2022-12-25T18:54:24.703Z,98627.00
2022-12-25T18:56:04.317Z,98631.00
2022-12-25T18:57:39.656Z,98635.00
2022-12-25T18:59:13.025Z,98624.00
2022-12-25T19:00:46.249Z,98627.00
2022-12-25T19:02:20.914Z,98630.00
2022-12-25T19:04:00.172Z,98635.00
2022-12-25T19:05:40.307Z,98636.00
2022-12-25T19:07:23.249Z,98639.00
2022-12-25T19:08:57.672Z,98628.00
2022-12-25T19:10:30.777Z,98637.00
2022-12-25T19:12:04.388Z,98637.00
2022-12-25T19:13:38.019Z,98637.00
2022-12-25T19:15:12.357Z,98640.00